Time;durP1;ratioP1;P1;durP2;ratioP2;P2;SDS_P1;SDS_P2;PMS_P1;PMS_P2;Temp;Humidity;BMP_temperature;BMP_pressure;BME280_temperature;BME280_humidity;BME280_pressure;Samples;Min_cycle;Max_cycle;Signal;HPM_P1;HPM_P2
2022/03/28 00:02:05;;;;;;;27.90;12.25;;;;;;;3.40;57.04;94771.78;5010346;28;20406;-51
2022/03/28 00:04:32;;;;;;;30.17;12.68;;;;;;;3.39;57.27;94774.84;5010371;28;20049;-48
2022/03/28 00:06:59;;;;;;;28.45;12.80;;;;;;;3.39;57.17;94772.91;5018635;28;20045;-51
2022/03/28 00:09:26;;;;;;;27.43;12.23;;;;;;;3.42;57.39;94771.44;5028955;28;20414;-48
2022/03/28 00:11:52;;;;;;;29.30;13.20;;;;;;;3.38;57.23;94762.41;5029986;28;20490;-45
2022/03/28 00:14:19;;;;;;;25.60;12.73;;;;;;;3.33;57.25;94759.97;5030319;28;20053;-46
2022/03/28 00:16:46;;;;;;;26.05;11.80;;;;;;;3.31;57.55;94759.53;5029601;28;20072;-52
2022/03/28 00:19:13;;;;;;;34.42;14.23;;;;;;;3.26;57.91;94755.16;5029894;28;20045;-50
2022/03/28 00:21:40;;;;;;;29.87;12.40;;;;;;;3.10;58.42;94755.13;5029704;28;20049;-46
2022/03/28 00:24:07;;;;;;;28.48;12.40;;;;;;;3.14;58.40;94757.91;5029998;28;20072;-52
2022/03/28 00:26:35;;;;;;;28.35;12.60;;;;;;;3.11;58.41;94748.53;5030061;28;20049;-50
2022/03/28 00:29:02;;;;;;;29.67;12.00;;;;;;;3.10;58.34;94749.69;5029098;28;20397;-46
2022/03/28 00:31:30;;;;;;;27.70;11.98;;;;;;;2.98;58.48;94749.75;5029824;28;20071;-47
2022/03/28 00:33:57;;;;;;;30.90;12.17;;;;;;;3.00;58.39;94747.50;5029666;28;20049;-46
2022/03/28 00:36:23;;;;;;;28.40;12.20;;;;;;;3.05;59.22;94754.56;5030159;28;20046;-53
2022/03/28 00:38:51;;;;;;;30.30;12.77;;;;;;;3.04;58.62;94748.38;5028138;28;20052;-47
2022/03/28 00:41:19;;;;;;;36.22;13.10;;;;;;;3.03;58.63;94744.06;5029931;28;20034;-51
2022/03/28 00:43:56;;;;;;;34.10;13.13;;;;;;;2.97;58.46;94740.81;5032193;28;20049;-52
2022/03/28 00:46:23;;;;;;;31.90;13.07;;;;;;;2.90;58.82;94742.56;5033502;28;20045;-49
2022/03/28 00:48:52;;;;;;;29.17;12.32;;;;;;;2.87;59.14;94737.84;5033080;28;20061;-46
2022/03/28 00:51:21;;;;;;;27.83;12.13;;;;;;;2.80;59.40;94741.16;5033677;28;20045;-48
2022/03/28 00:53:50;;;;;;;34.55;12.63;;;;;;;2.76;59.28;94737.53;5032938;28;20502;-47
2022/03/28 00:56:17;;;;;;;33.05;12.85;;;;;;;2.68;59.66;94736.56;5033646;28;20046;-46
2022/03/28 00:58:44;;;;;;;30.20;12.80;;;;;;;2.64;59.65;94735.66;5033097;28;20057;-50
2022/03/28 01:01:11;;;;;;;27.38;12.48;;;;;;;2.59;59.82;94735.91;5033271;28;20042;-47
2022/03/28 01:03:39;;;;;;;41.25;14.32;;;;;;;2.60;60.14;94734.78;5032908;28;20061;-49
2022/03/28 01:06:05;;;;;;;31.10;12.23;;;;;;;2.59;59.99;94733.19;5033385;28;20045;-51
2022/03/28 01:08:34;;;;;;;33.90;13.40;;;;;;;2.48;60.18;94737.53;5033146;28;20054;-52
2022/03/28 01:11:06;;;;;;;49.27;16.13;;;;;;;2.37;61.11;94737.22;5032285;28;20902;-52
2022/03/28 01:13:34;;;;;;;49.65;16.05;;;;;;;2.34;61.06;94727.06;5033258;28;20076;-46
2022/03/28 01:16:02;;;;;;;43.50;15.43;;;;;;;2.35;60.71;94739.47;5032238;28;20038;-47
2022/03/28 01:18:29;;;;;;;37.65;13.02;;;;;;;2.31;60.94;94733.94;5031151;28;20045;-47
2022/03/28 01:20:57;;;;;;;35.13;12.68;;;;;;;2.34;60.91;94729.78;5020703;28;20037;-47
2022/03/28 01:23:24;;;;;;;29.37;12.27;;;;;;;2.31;60.74;94733.94;5044709;28;20041;-47
2022/03/28 01:25:51;;;;;;;26.02;11.55;;;;;;;2.27;60.84;94716.81;5012855;28;20040;-51
2022/03/28 01:28:23;;;;;;;29.92;11.93;;;;;;;2.32;60.67;94727.41;5013031;28;20436;-48
2022/03/28 01:30:51;;;;;;;32.15;12.55;;;;;;;2.31;60.65;94717.69;5012571;28;20068;-47
2022/03/28 01:33:18;;;;;;;34.03;13.05;;;;;;;2.28;60.70;94715.69;5013069;28;20050;-46
2022/03/28 01:35:45;;;;;;;31.43;12.67;;;;;;;2.20;60.67;94716.59;5011280;28;20049;-51
2022/03/28 01:38:14;;;;;;;32.30;13.05;;;;;;;2.13;60.85;94717.19;5011511;28;20042;-49
2022/03/28 01:40:43;;;;;;;26.65;12.50;;;;;;;1.91;62.21;94717.66;5012558;28;20050;-52
2022/03/28 01:43:10;;;;;;;26.30;12.20;;;;;;;1.97;61.81;94714.41;5012910;28;20046;-57
2022/03/28 01:45:38;;;;;;;34.35;13.75;;;;;;;2.01;61.82;94714.50;5011032;28;20073;-49
2022/03/28 01:48:05;;;;;;;35.20;14.17;;;;;;;1.98;61.65;94715.19;5012738;28;20046;-50
2022/03/28 01:50:32;;;;;;;33.55;13.52;;;;;;;1.98;61.99;94707.06;5012818;28;20414;-51
2022/03/28 01:53:00;;;;;;;31.58;12.98;;;;;;;1.94;61.79;94706.16;5011671;28;21298;-51
2022/03/28 01:55:27;;;;;;;42.90;14.88;;;;;;;1.93;62.29;94702.69;5011353;28;20096;-52
2022/03/28 01:57:54;;;;;;;31.92;12.05;;;;;;;1.84;62.39;94703.94;5012395;28;20053;-53
2022/03/28 02:00:23;;;;;;;27.83;11.87;;;;;;;1.85;62.39;94703.59;5012492;28;20044;-49
2022/03/28 02:02:51;;;;;;;28.33;11.77;;;;;;;1.84;62.24;94702.00;5012141;28;20046;-47
2022/03/28 02:05:18;;;;;;;28.33;11.82;;;;;;;1.90;62.74;94697.94;5012680;28;20046;-48
2022/03/28 02:07:47;;;;;;;31.35;12.68;;;;;;;1.85;62.29;94700.88;5026772;28;20056;-48
2022/03/28 02:10:16;;;;;;;33.03;12.35;;;;;;;1.80;62.58;94695.69;5032097;28;20037;-51
2022/03/28 02:12:44;;;;;;;32.30;12.40;;;;;;;1.77;62.20;94689.06;5031476;28;20476;-50
2022/03/28 02:15:12;;;;;;;32.08;12.27;;;;;;;1.74;62.24;94691.66;5031969;28;20045;-47
2022/03/28 02:17:39;;;;;;;31.48;12.05;;;;;;;1.73;62.39;94682.75;5031430;28;20060;-46
2022/03/28 02:20:09;;;;;;;26.75;11.70;;;;;;;1.68;62.53;94688.38;5032007;28;20034;-46
2022/03/28 02:22:37;;;;;;;27.85;11.70;;;;;;;1.66;62.09;94687.16;5031102;28;20049;-48
2022/03/28 02:25:06;;;;;;;33.57;12.67;;;;;;;1.63;62.10;94682.41;5031838;28;20045;-47
2022/03/28 02:27:33;;;;;;;31.02;11.80;;;;;;;1.60;62.11;94692.78;5031712;28;20049;-45
2022/03/28 02:30:01;;;;;;;26.80;11.52;;;;;;;1.58;62.02;94683.44;5030831;28;20530;-48
2022/03/28 02:32:27;;;;;;;26.33;11.65;;;;;;;1.52;62.57;94682.88;5030495;28;20052;-45
2022/03/28 02:34:54;;;;;;;31.00;12.65;;;;;;;1.51;63.43;94678.59;5031169;28;20077;-45
2022/03/28 02:37:21;;;;;;;31.10;13.43;;;;;;;1.51;63.42;94677.78;5031560;28;20041;-49
2022/03/28 02:39:48;;;;;;;33.13;13.45;;;;;;;1.46;63.31;94668.00;5030904;28;20050;-47
2022/03/28 02:42:14;;;;;;;31.92;13.52;;;;;;;1.44;62.57;94675.66;5031538;28;20041;-46
2022/03/28 02:44:41;;;;;;;30.85;12.77;;;;;;;1.40;62.65;94677.47;5031169;28;20045;-46
2022/03/28 02:47:08;;;;;;;28.40;12.23;;;;;;;1.36;62.61;94680.03;5031249;28;20044;-47
2022/03/28 02:49:35;;;;;;;29.07;12.50;;;;;;;1.32;63.06;94678.34;5031187;28;20037;-47
2022/03/28 02:52:02;;;;;;;28.42;12.02;;;;;;;1.29;63.48;94676.31;5013984;28;20044;-50
2022/03/28 02:54:29;;;;;;;24.77;10.75;;;;;;;1.28;63.36;94670.13;5028473;28;20047;-46
2022/03/28 02:56:55;;;;;;;30.25;12.75;;;;;;;1.18;64.15;94674.06;5011060;28;20371;-52
2022/03/28 02:59:22;;;;;;;28.88;12.30;;;;;;;1.20;64.44;94671.03;5043121;28;20042;-45
2022/03/28 03:01:50;;;;;;;26.93;11.87;;;;;;;1.19;64.25;94661.34;5010512;28;20064;-47
2022/03/28 03:04:17;;;;;;;28.45;12.15;;;;;;;1.18;64.61;94663.25;5011580;28;20512;-46
2022/03/28 03:06:44;;;;;;;27.27;12.23;;;;;;;1.15;64.55;94666.63;5017257;28;20053;-52
2022/03/28 03:09:11;;;;;;;30.50;13.02;;;;;;;1.04;65.03;94662.78;5030893;28;20040;-51
2022/03/28 03:11:40;;;;;;;27.10;12.43;;;;;;;0.98;65.30;94658.72;5030663;28;20041;-46
2022/03/28 03:14:07;;;;;;;28.57;12.43;;;;;;;0.94;65.47;94653.19;5031059;28;20049;-49
2022/03/28 03:16:33;;;;;;;26.52;12.27;;;;;;;0.92;65.47;94652.75;5030780;28;20041;-47
2022/03/28 03:19:00;;;;;;;30.13;12.73;;;;;;;0.98;65.91;94653.31;5028443;28;20729;-47
2022/03/28 03:21:27;;;;;;;28.15;12.05;;;;;;;0.94;65.50;94649.72;5030745;28;20045;-49
2022/03/28 03:23:54;;;;;;;27.70;12.30;;;;;;;0.91;65.45;94653.88;5029994;28;20079;-49
2022/03/28 03:26:20;;;;;;;27.70;12.27;;;;;;;0.85;65.79;94652.53;5030736;28;20038;-48
2022/03/28 03:28:47;;;;;;;33.90;13.93;;;;;;;0.82;66.38;94647.78;5030140;28;20057;-51
2022/03/28 03:31:14;;;;;;;32.47;13.40;;;;;;;0.67;66.33;94651.16;5030549;28;20414;-47
2022/03/28 03:33:41;;;;;;;30.73;13.65;;;;;;;0.64;66.93;94651.78;5030041;28;20108;-48
2022/03/28 03:36:08;;;;;;;33.13;13.55;;;;;;;0.63;66.79;94647.53;5029216;28;20041;-49
2022/03/28 03:38:35;;;;;;;31.27;13.90;;;;;;;0.62;66.81;94657.53;5029841;28;20038;-52
2022/03/28 03:41:01;;;;;;;32.80;13.65;;;;;;;0.63;66.40;94656.41;5029417;28;20445;-50
2022/03/28 03:43:28;;;;;;;33.90;13.18;;;;;;;0.58;66.56;94651.22;5030501;28;20053;-49
2022/03/28 03:45:55;;;;;;;29.52;13.00;;;;;;;0.59;66.72;94658.22;5028968;28;20429;-45
2022/03/28 03:48:22;;;;;;;29.10;12.77;;;;;;;0.53;66.99;94654.16;5030236;28;20042;-50
2022/03/28 03:50:49;;;;;;;27.50;12.07;;;;;;;0.48;67.33;94651.63;5030037;28;20095;-53
2022/03/28 03:53:16;;;;;;;31.17;13.10;;;;;;;0.48;66.94;94652.41;5029350;28;20048;-52
2022/03/28 03:55:43;;;;;;;34.65;14.35;;;;;;;0.48;67.05;94657.81;5011315;28;20046;-55
2022/03/28 03:58:10;;;;;;;33.70;14.25;;;;;;;0.50;67.22;94663.69;5024289;28;20052;-45
2022/03/28 04:00:37;;;;;;;31.23;13.27;;;;;;;0.46;67.25;94649.25;5008718;28;20068;-45
2022/03/28 04:03:04;;;;;;;28.13;12.47;;;;;;;0.35;67.74;94651.59;5010445;28;20052;-49
2022/03/28 04:05:32;;;;;;;27.77;12.55;;;;;;;0.36;67.19;94657.78;5010505;28;20046;-51
2022/03/28 04:07:59;;;;;;;33.13;13.10;;;;;;;0.37;67.75;94651.28;5026989;28;20048;-49
2022/03/28 04:10:26;;;;;;;29.80;12.57;;;;;;;0.27;67.65;94649.78;5030256;28;20052;-50
2022/03/28 04:12:53;;;;;;;29.13;12.85;;;;;;;0.31;67.62;94648.00;5012079;28;20056;-53
2022/03/28 04:15:20;;;;;;;29.70;12.30;;;;;;;0.29;67.19;94652.94;5030093;28;20045;-46
2022/03/28 04:17:47;;;;;;;27.42;11.88;;;;;;;0.32;67.30;94646.88;5030537;28;20055;-50
2022/03/28 04:20:15;;;;;;;34.63;13.18;;;;;;;0.25;68.38;94654.72;5032767;28;20045;-51
2022/03/28 04:22:42;;;;;;;30.80;11.98;;;;;;;0.28;68.11;94651.38;5033531;28;20045;-49
2022/03/28 04:25:10;;;;;;;30.02;13.27;;;;;;;0.27;67.70;94652.47;5032440;28;20049;-49
2022/03/28 04:27:38;;;;;;;28.50;12.27;;;;;;;0.28;68.13;94653.25;5032241;28;20046;-53
2022/03/28 04:30:07;;;;;;;30.20;12.82;;;;;;;0.30;67.99;94648.31;5033961;28;20037;-48
2022/03/28 04:32:34;;;;;;;29.42;13.68;;;;;;;0.31;68.07;94647.22;5033893;28;20045;-52
2022/03/28 04:35:03;;;;;;;31.20;14.23;;;;;;;0.24;68.54;94642.31;5031822;28;20503;-51
2022/03/28 04:37:38;;;;;;;29.73;13.90;;;;;;;0.25;68.22;94635.03;5033759;28;20053;-48
2022/03/28 04:40:08;;;;;;;39.37;18.20;;;;;;;0.26;67.59;94642.00;5033057;28;20709;-50
2022/03/28 04:42:35;;;;;;;50.53;22.77;;;;;;;0.21;68.24;94645.69;5033319;28;20057;-53
2022/03/28 04:45:06;;;;;;;38.88;18.05;;;;;;;0.18;68.27;94643.66;5033525;28;20044;-48
2022/03/28 04:47:34;;;;;;;32.30;12.82;;;;;;;-0.08;69.49;94646.56;5033416;28;20042;-56
2022/03/28 04:50:01;;;;;;;28.70;13.18;;;;;;;-0.16;70.20;94637.44;5032834;28;20173;-53
2022/03/28 04:52:27;;;;;;;43.30;13.77;;;;;;;-0.17;70.80;94641.25;5033555;28;20045;-50
2022/03/28 04:54:54;;;;;;;33.10;13.18;;;;;;;-0.11;70.15;94639.16;5025986;28;20501;-50
2022/03/28 04:57:21;;;;;;;31.40;14.63;;;;;;;-0.05;69.71;94640.53;5025675;28;20049;-49
2022/03/28 04:59:48;;;;;;;33.35;14.80;;;;;;;-0.03;69.67;94641.00;5032921;28;20044;-52
2022/03/28 05:02:15;;;;;;;28.73;13.43;;;;;;;0.01;69.47;94643.81;5032974;28;20033;-51
2022/03/28 05:04:42;;;;;;;27.43;12.47;;;;;;;0.05;69.35;94648.22;5031464;28;20053;-51
2022/03/28 05:07:09;;;;;;;32.50;13.02;;;;;;;-0.22;69.93;94647.63;5064743;28;20064;-48
2022/03/28 05:09:36;;;;;;;28.25;12.27;;;;;;;-0.21;70.49;94643.03;5032432;28;20057;-49
2022/03/28 05:12:03;;;;;;;32.60;12.75;;;;;;;-0.12;70.74;94645.66;5033258;28;20052;-51
2022/03/28 05:14:29;;;;;;;27.70;12.10;;;;;;;-0.04;70.37;94645.59;5033069;28;20061;-51
2022/03/28 05:16:56;;;;;;;29.37;12.87;;;;;;;0.07;70.23;94642.50;5031411;28;20049;-50
2022/03/28 05:19:23;;;;;;;29.08;11.88;;;;;;;0.10;69.81;94644.53;5032573;28;20052;-47
2022/03/28 05:21:50;;;;;;;28.45;12.55;;;;;;;0.07;69.87;94647.91;5032456;28;20045;-47
2022/03/28 05:24:17;;;;;;;28.27;11.60;;;;;;;-0.03;69.82;94647.16;5032712;28;20504;-47
2022/03/28 05:26:43;;;;;;;33.13;13.82;;;;;;;0.03;70.48;94649.69;5032263;28;20045;-48
2022/03/28 05:29:10;;;;;;;35.43;12.13;;;;;;;0.10;69.93;94649.91;5032486;28;20041;-52
2022/03/28 05:31:37;;;;;;;29.67;12.63;;;;;;;0.13;70.19;94649.28;5031052;28;20387;-52
2022/03/28 05:34:03;;;;;;;33.25;13.48;;;;;;;0.09;70.07;94654.53;5032850;28;20037;-49
2022/03/28 05:36:30;;;;;;;28.60;12.18;;;;;;;0.11;70.01;94648.81;5031441;28;20418;-49
2022/03/28 05:38:58;;;;;;;31.15;12.32;;;;;;;0.03;70.35;94646.97;5031039;28;20075;-48
2022/03/28 05:41:25;;;;;;;30.17;12.77;;;;;;;-0.04;70.57;94650.19;5014078;28;20088;-50
2022/03/28 05:43:51;;;;;;;33.60;12.98;;;;;;;0.08;70.71;94649.47;5031020;28;20045;-50
2022/03/28 05:46:18;;;;;;;31.33;13.38;;;;;;;0.22;70.12;94647.25;5030518;28;20120;-54
2022/03/28 05:48:52;;;;;;;30.08;13.10;;;;;;;0.24;69.74;94652.34;5031184;28;20041;-47
2022/03/28 05:51:18;;;;;;;32.22;12.95;;;;;;;0.01;70.86;94649.22;5031832;28;20037;-48
2022/03/28 05:53:45;;;;;;;32.80;13.70;;;;;;;-0.09;71.26;94647.69;5031070;28;20045;-48
2022/03/28 05:56:12;;;;;;;36.30;13.77;;;;;;;-0.02;71.35;94651.47;5031000;28;20038;-49
2022/03/28 05:58:39;;;;;;;35.83;14.85;;;;;;;0.31;70.64;94652.59;5031773;28;20053;-49
2022/03/28 06:01:06;;;;;;;32.80;14.02;;;;;;;0.32;70.53;94649.56;5031715;28;20384;-50
2022/03/28 06:03:33;;;;;;;35.47;14.73;;;;;;;0.42;70.63;94648.34;5031335;28;20049;-51
2022/03/28 06:06:03;;;;;;;31.47;13.43;;;;;;;0.48;69.83;94641.63;5030316;28;20041;-47
2022/03/28 06:08:31;;;;;;;33.60;14.23;;;;;;;0.60;69.54;94651.66;5031570;28;20079;-46
2022/03/28 06:10:58;;;;;;;33.50;14.05;;;;;;;0.72;69.30;94648.22;5031744;28;20042;-51
2022/03/28 06:13:24;;;;;;;34.22;13.82;;;;;;;0.71;69.24;94650.13;5032127;28;20450;-49
2022/03/28 06:15:51;;;;;;;35.58;15.02;;;;;;;0.95;68.70;94643.97;5031377;28;20049;-47
2022/03/28 06:18:18;;;;;;;32.50;13.73;;;;;;;1.20;67.79;94650.19;5031669;28;20049;-52
2022/03/28 06:20:45;;;;;;;32.83;13.52;;;;;;;1.52;66.94;94644.22;5030732;28;20494;-50
2022/03/28 06:23:12;;;;;;;29.42;13.35;;;;;;;1.47;67.37;94641.72;5019055;28;20149;-48
2022/03/28 06:25:40;;;;;;;31.23;14.32;;;;;;;1.51;67.46;94642.63;5011755;28;20065;-50
2022/03/28 06:28:07;;;;;;;31.25;13.95;;;;;;;1.57;67.54;94646.66;5011870;28;20060;-48
2022/03/28 06:30:34;;;;;;;29.63;13.57;;;;;;;1.85;66.51;94643.25;5012139;28;20042;-49
2022/03/28 06:33:01;;;;;;;35.08;13.52;;;;;;;1.96;65.90;94642.44;5011044;28;20410;-48
2022/03/28 06:35:28;;;;;;;29.25;13.38;;;;;;;2.00;65.62;94637.91;5027225;28;20045;-48
2022/03/28 06:37:55;;;;;;;30.55;13.15;;;;;;;1.84;66.48;94631.63;5011207;28;20057;-48
2022/03/28 06:40:22;;;;;;;31.15;13.77;;;;;;;2.13;65.50;94641.38;5011122;28;20109;-47
2022/03/28 06:42:49;;;;;;;31.40;13.10;;;;;;;2.36;65.37;94635.44;5011221;28;20046;-46
2022/03/28 06:45:17;;;;;;;30.02;12.80;;;;;;;2.78;63.99;94637.69;5011825;28;20060;-50
2022/03/28 06:47:51;;;;;;;33.05;13.15;;;;;;;2.86;63.66;94635.94;5010168;28;20046;-47
2022/03/28 06:50:21;;;;;;;27.17;12.88;;;;;;;2.93;63.27;94639.63;5011793;28;20475;-47
2022/03/28 06:52:47;;;;;;;30.95;13.27;;;;;;;2.75;64.02;94631.03;5011057;28;20054;-53
2022/03/28 06:55:14;;;;;;;29.77;13.50;;;;;;;3.12;63.30;94622.66;5011485;28;20049;-46
2022/03/28 06:57:41;;;;;;;31.10;13.43;;;;;;;3.27;62.52;94631.94;5009681;28;20426;-46
2022/03/28 07:00:12;;;;;;;31.90;14.45;;;;;;;3.28;62.27;94635.41;5011389;28;20041;-49
2022/03/28 07:02:40;;;;;;;35.38;13.70;;;;;;;3.25;62.31;94639.63;5011070;28;20042;-48
2022/03/28 07:05:08;;;;;;;29.95;13.18;;;;;;;3.46;62.01;94644.00;5011361;28;20056;-50
2022/03/28 07:07:46;;;;;;;28.73;13.33;;;;;;;3.92;61.15;94631.44;5024626;28;20045;-48
2022/03/28 07:10:15;;;;;;;29.35;13.75;;;;;;;4.00;60.32;94630.47;5031020;28;20053;-51
2022/03/28 07:12:42;;;;;;;28.98;14.13;;;;;;;5.07;58.43;94624.72;5030296;28;20055;-48
2022/03/28 07:15:10;;;;;;;35.00;14.90;;;;;;;7.86;50.40;94618.25;5013323;28;20048;-52
2022/03/28 07:17:56;;;;;;;27.40;14.23;;;;;;;10.14;44.16;94624.63;5030143;28;20057;-52
2022/03/28 07:20:25;;;;;;;26.77;14.43;;;;;;;11.97;40.51;94618.16;5030968;28;20049;-53
2022/03/28 07:22:53;;;;;;;26.42;14.60;;;;;;;13.73;36.42;94619.50;5030220;28;20049;-51
2022/03/28 07:25:21;;;;;;;27.27;14.73;;;;;;;13.83;36.22;94614.25;5030902;28;20044;-50
2022/03/28 07:27:50;;;;;;;28.40;15.07;;;;;;;15.17;34.47;94608.53;5030455;28;20047;-50
2022/03/28 07:30:17;;;;;;;27.48;14.82;;;;;;;16.62;31.14;94601.84;5029338;28;20095;-53
2022/03/28 07:32:45;;;;;;;23.60;14.87;;;;;;;16.68;31.08;94607.63;5030156;28;20037;-53
2022/03/28 07:35:14;;;;;;;23.70;15.18;;;;;;;17.60;29.89;94610.91;5030862;28;20037;-51
2022/03/28 07:37:41;;;;;;;23.42;14.90;;;;;;;17.54;29.27;94603.13;5029804;28;20459;-53
2022/03/28 07:40:09;;;;;;;24.63;14.57;;;;;;;17.28;28.55;94594.03;5030549;28;20059;-55
2022/03/28 07:42:37;;;;;;;25.08;14.60;;;;;;;18.31;27.89;94596.72;5030160;28;20058;-53
2022/03/28 07:45:06;;;;;;;25.43;14.70;;;;;;;17.82;28.27;94594.34;5030391;28;20486;-57
2022/03/28 07:47:32;;;;;;;25.40;15.27;;;;;;;18.78;27.94;94584.75;5030506;28;20057;-50
2022/03/28 07:50:02;;;;;;;26.15;15.75;;;;;;;18.88;27.15;94585.63;5029871;28;20046;-46
2022/03/28 07:52:29;;;;;;;25.45;15.32;;;;;;;19.36;26.38;94583.41;5029623;28;20048;-48
2022/03/28 07:54:55;;;;;;;26.90;16.10;;;;;;;18.68;27.08;94591.47;5015058;28;20038;-47
2022/03/28 07:57:22;;;;;;;27.50;15.37;;;;;;;19.07;27.36;94589.28;5017845;28;20103;-51
2022/03/28 07:59:49;;;;;;;25.48;14.88;;;;;;;21.33;23.99;94577.91;5010217;28;20080;-50
2022/03/28 08:02:38;;;;;;;26.83;16.00;;;;;;;20.86;24.57;94578.47;5010301;28;20046;-51
2022/03/28 08:05:07;;;;;;;29.77;16.52;;;;;;;20.00;25.25;94579.31;5010557;28;20042;-49
2022/03/28 08:07:34;;;;;;;26.52;15.95;;;;;;;21.10;23.57;94573.78;5024149;28;20045;-49
2022/03/28 08:10:05;;;;;;;28.53;16.13;;;;;;;22.45;22.97;94578.16;5029283;28;20898;-50
2022/03/28 08:12:33;;;;;;;25.63;15.65;;;;;;;20.78;23.95;94569.63;5030105;28;20045;-54
2022/03/28 08:15:00;;;;;;;28.27;15.32;;;;;;;21.73;22.94;94573.28;5027902;28;20848;-54
2022/03/28 08:17:27;;;;;;;23.23;15.35;;;;;;;22.66;22.51;94574.28;5029798;28;20079;-50
2022/03/28 08:19:54;;;;;;;23.55;14.68;;;;;;;22.13;22.67;94561.75;5029738;28;20049;-47
2022/03/28 08:22:21;;;;;;;26.47;15.23;;;;;;;21.21;23.53;94564.13;5030183;28;20053;-51
2022/03/28 08:24:48;;;;;;;26.88;15.65;;;;;;;22.27;22.76;94563.06;5028230;28;20095;-47
2022/03/28 08:27:15;;;;;;;25.35;15.30;;;;;;;23.04;22.27;94557.94;5030000;28;20041;-48
2022/03/28 08:29:42;;;;;;;25.88;15.23;;;;;;;24.31;20.71;94556.88;5029491;28;20080;-53
2022/03/28 08:32:09;;;;;;;27.95;15.25;;;;;;;23.08;21.81;94556.50;5029790;28;20045;-54
2022/03/28 08:34:37;;;;;;;22.70;14.60;;;;;;;23.78;21.30;94545.94;5029699;28;20061;-52
2022/03/28 08:37:04;;;;;;;25.08;14.75;;;;;;;25.01;20.10;94545.94;5029879;28;20044;-50
2022/03/28 08:39:31;;;;;;;24.83;15.45;;;;;;;24.79;20.14;94544.44;5029728;28;20053;-54
2022/03/28 08:41:58;;;;;;;24.13;14.77;;;;;;;26.06;18.51;94549.38;5029509;28;20037;-50
2022/03/28 08:44:26;;;;;;;26.08;15.30;;;;;;;25.70;19.09;94532.75;5029908;28;20049;-51
2022/03/28 08:46:55;;;;;;;24.70;15.50;;;;;;;23.65;21.59;94538.59;5012199;28;20049;-51
2022/03/28 08:49:23;;;;;;;24.90;14.90;;;;;;;23.77;20.99;94535.97;5029648;28;20482;-51
2022/03/28 08:51:51;;;;;;;26.08;14.52;;;;;;;24.69;20.47;94534.66;5029238;28;20045;-47
2022/03/28 08:54:19;;;;;;;23.15;14.32;;;;;;;25.20;19.67;94526.72;5027003;28;20041;-50
2022/03/28 08:56:47;;;;;;;25.02;13.75;;;;;;;25.20;19.46;94529.53;5010511;28;20221;-49
2022/03/28 08:59:14;;;;;;;20.87;13.63;;;;;;;25.25;19.06;94515.56;5009979;28;20107;-49
2022/03/28 09:01:44;;;;;;;24.65;14.13;;;;;;;25.75;19.42;94505.19;5009398;28;20591;-52
2022/03/28 09:04:12;;;;;;;25.77;14.27;;;;;;;27.11;17.70;94515.75;5010516;28;20045;-51
2022/03/28 09:06:42;;;;;;;21.20;13.85;;;;;;;25.81;18.40;94509.56;5019305;28;20049;-54
2022/03/28 09:09:24;;;;;;;22.65;14.25;;;;;;;25.18;18.39;94504.75;5033249;28;20038;-51
2022/03/28 09:11:58;;;;;;;23.43;14.67;;;;;;;23.87;19.35;94504.53;5033064;28;20068;-51
2022/03/28 09:14:27;;;;;;;22.48;14.25;;;;;;;25.52;17.93;94499.41;5033068;28;20067;-49
2022/03/28 09:17:13;;;;;;;22.52;14.20;;;;;;;25.16;17.74;94495.28;5032627;28;20067;-50
2022/03/28 09:19:47;;;;;;;22.08;13.75;;;;;;;25.78;17.71;94498.56;5032378;28;20041;-51
2022/03/28 09:22:17;;;;;;;24.58;14.55;;;;;;;25.82;17.73;94496.31;5033260;28;20607;-52
2022/03/28 09:24:45;;;;;;;22.53;14.37;;;;;;;25.55;17.66;94484.34;5032614;28;20695;-53
2022/03/28 09:27:14;;;;;;;21.67;14.52;;;;;;;24.37;18.46;94484.00;5033071;28;20039;-49
2022/03/28 09:30:01;;;;;;;21.80;14.05;;;;;;;24.05;18.42;94489.47;5032458;28;20044;-53
2022/03/28 09:32:34;;;;;;;22.13;14.20;;;;;;;25.08;17.14;94481.66;5032916;28;20045;-51
2022/03/28 09:35:05;;;;;;;21.25;14.27;;;;;;;24.89;17.23;94478.44;5030829;28;20045;-50
2022/03/28 09:37:50;;;;;;;23.97;14.47;;;;;;;25.54;16.72;94482.06;5033100;28;20049;-52
2022/03/28 09:40:33;;;;;;;21.50;14.10;;;;;;;26.19;16.02;94475.78;5031811;28;20914;-49
2022/03/28 09:43:03;;;;;;;22.30;14.23;;;;;;;26.23;15.90;94479.13;5031852;28;20388;-51
2022/03/28 09:45:34;;;;;;;20.17;13.88;;;;;;;24.86;15.93;94465.41;5032753;28;20056;-49
2022/03/28 09:48:04;;;;;;;23.40;14.10;;;;;;;25.93;15.50;94464.69;5031582;28;21742;-49
2022/03/28 09:50:42;;;;;;;21.20;14.13;;;;;;;26.93;14.85;94471.19;5032649;28;20457;-50
2022/03/28 09:53:18;;;;;;;21.45;14.18;;;;;;;25.25;15.29;94461.41;5030342;28;20906;-54
2022/03/28 09:55:56;;;;;;;21.35;13.80;;;;;;;24.33;16.64;94464.56;5023132;28;20483;-49
2022/03/28 09:58:44;;;;;;;20.80;13.80;;;;;;;25.29;15.86;94459.13;5012607;28;20052;-48
2022/03/28 10:01:23;;;;;;;20.38;13.00;;;;;;;24.65;15.15;94461.09;5011597;28;20041;-50
2022/03/28 10:03:53;;;;;;;20.67;13.13;;;;;;;26.23;14.77;94456.63;5012145;28;20050;-49
2022/03/28 10:06:21;;;;;;;20.75;12.77;;;;;;;25.12;14.46;94454.13;5015900;28;20037;-55
2022/03/28 10:08:49;;;;;;;19.73;12.93;;;;;;;25.42;14.79;94453.88;5029970;28;20038;-48
2022/03/28 10:11:17;;;;;;;20.75;13.23;;;;;;;28.37;13.69;94442.53;5030976;28;20046;-54
2022/03/28 10:13:44;;;;;;;21.20;12.98;;;;;;;26.24;14.16;94444.09;5031535;28;20516;-52
2022/03/28 10:16:12;;;;;;;19.03;12.20;;;;;;;27.08;13.75;94441.47;5030994;28;20049;-47
2022/03/28 10:18:41;;;;;;;20.58;12.95;;;;;;;25.03;15.13;94428.25;5031233;28;20118;-54
2022/03/28 10:21:15;;;;;;;21.30;12.95;;;;;;;24.09;16.54;94424.78;5032032;28;20067;-51
2022/03/28 10:24:07;;;;;;;21.63;12.93;;;;;;;24.94;15.53;94439.69;5031218;28;20151;-50
2022/03/28 10:26:38;;;;;;;20.45;13.07;;;;;;;26.75;14.63;94422.50;5032009;28;20041;-51
2022/03/28 10:29:14;;;;;;;20.57;13.57;;;;;;;27.25;13.74;94410.50;5030892;28;20037;-52
2022/03/28 10:31:56;;;;;;;19.60;13.32;;;;;;;27.61;13.48;94418.41;5031110;28;20060;-49
2022/03/28 10:34:56;;;;;;;19.77;13.10;;;;;;;26.51;14.47;94414.50;5031792;28;20045;-49
2022/03/28 10:37:37;;;;;;;21.13;13.43;;;;;;;25.42;15.30;94406.09;5030556;28;20789;-51
2022/03/28 10:40:25;;;;;;;18.83;12.48;;;;;;;24.05;16.61;94405.38;5030297;28;20580;-49
2022/03/28 10:43:11;;;;;;;18.87;13.07;;;;;;;25.06;16.22;94399.97;5030741;28;20072;-52
2022/03/28 10:45:49;;;;;;;19.40;12.68;;;;;;;27.35;13.87;94391.28;5030645;28;20053;-50
2022/03/28 10:48:33;;;;;;;20.38;12.50;;;;;;;25.68;14.78;94383.50;5031170;28;20055;-53
2022/03/28 10:51:05;;;;;;;18.85;11.93;;;;;;;24.06;15.45;94394.91;5030466;28;20037;-54
2022/03/28 10:53:41;;;;;;;19.75;12.43;;;;;;;23.72;15.63;94383.28;5031197;28;20118;-49
2022/03/28 10:56:17;;;;;;;20.70;11.97;;;;;;;24.09;16.15;94377.13;5030292;28;20632;-54
2022/03/28 10:58:49;;;;;;;20.55;12.27;;;;;;;23.97;16.03;94378.25;5030718;28;20103;-54
2022/03/28 11:01:22;;;;;;;18.73;12.27;;;;;;;23.76;16.67;94381.03;5030957;28;20053;-50
2022/03/28 11:04:01;;;;;;;18.85;12.43;;;;;;;24.01;17.33;94367.59;5030780;28;20041;-47
2022/03/28 11:06:44;;;;;;;20.48;12.55;;;;;;;25.37;16.27;94375.94;5031100;28;20479;-52
2022/03/28 11:09:11;;;;;;;19.13;12.77;;;;;;;25.56;15.76;94362.25;4992751;28;20657;-46
2022/03/28 11:11:58;;;;;;;23.20;13.25;;;;;;;26.57;15.76;94361.78;5010780;28;20134;-50
2022/03/28 11:14:49;;;;;;;20.92;13.35;;;;;;;25.84;15.89;94355.97;5011338;28;20058;-52
2022/03/28 11:17:16;;;;;;;19.95;12.32;;;;;;;29.29;13.46;94339.69;5010085;28;20139;-54
2022/03/28 11:20:01;;;;;;;19.10;12.50;;;;;;;27.96;13.50;94349.34;5010287;28;20064;-50
2022/03/28 11:22:50;;;;;;;20.03;12.23;;;;;;;28.01;13.71;94345.69;5010974;28;20056;-52
2022/03/28 11:25:35;;;;;;;18.50;11.75;;;;;;;26.18;14.76;94342.03;5013462;28;20402;-47
2022/03/28 11:28:07;;;;;;;15.45;9.73;;;;;;;28.26;11.82;94332.50;5024109;28;21600;-51
2022/03/28 11:30:49;;;;;;;17.77;10.32;;;;;;;29.06;10.65;94330.63;5030221;28;20493;-50
2022/03/28 11:33:22;;;;;;;16.52;10.15;;;;;;;26.02;12.18;94323.84;5029889;28;20063;-52